createdAt,value
2022-11-20T00:00:55.561Z,24.98
2022-11-20T00:03:22.460Z,24.27
2022-11-20T00:05:49.018Z,24.08
2022-11-20T00:08:15.582Z,23.27
2022-11-20T00:10:42.061Z,22.58
2022-11-20T00:13:08.953Z,23.90
2022-11-20T00:15:35.464Z,22.08
2022-11-20T00:18:02.032Z,28.02
2022-11-20T00:20:28.546Z,27.92
2022-11-20T00:22:55.144Z,24.48
2022-11-20T00:25:21.708Z,26.63
2022-11-20T00:27:48.142Z,23.25
2022-11-20T00:30:15.308Z,23.63
2022-11-20T00:32:41.948Z,23.90
2022-11-20T00:35:08.573Z,25.15
2022-11-20T00:37:35.126Z,22.88
2022-11-20T00:40:01.652Z,22.10
2022-11-20T00:42:28.241Z,27.83
2022-11-20T00:44:54.863Z,24.20
2022-11-20T00:47:21.295Z,24.95
2022-11-20T00:49:47.778Z,32.78
2022-11-20T00:52:14.281Z,26.35
2022-11-20T00:54:40.805Z,28.55
2022-11-20T00:57:07.334Z,28.58
2022-11-20T00:59:33.832Z,26.08
2022-11-20T01:02:00.379Z,26.15
2022-11-20T01:04:26.932Z,28.35
2022-11-20T01:06:53.466Z,23.92
2022-11-20T01:09:20.333Z,23.33
2022-11-20T01:11:47.231Z,29.38
2022-11-20T01:14:20.082Z,23.17
2022-11-20T01:16:49.321Z,25.35
2022-11-20T01:19:18.619Z,24.60
2022-11-20T01:21:46.688Z,22.52
2022-11-20T01:24:15.457Z,23.00
2022-11-20T01:26:43.987Z,21.77
2022-11-20T01:29:19.684Z,26.23
2022-11-20T01:31:46.525Z,23.55
2022-11-20T01:34:19.130Z,23.20
2022-11-20T01:36:46.359Z,21.13
2022-11-20T01:39:16.084Z,24.20
2022-11-20T01:42:07.072Z,24.52
2022-11-20T01:44:57.067Z,24.83
2022-11-20T01:50:12.685Z,23.20
2022-11-20T01:52:46.655Z,23.77
2022-11-20T01:55:23.040Z,22.10
2022-11-20T01:57:50.516Z,22.95
2022-11-20T02:00:19.801Z,22.98
2022-11-20T02:02:54.633Z,24.90
2022-11-20T02:05:24.944Z,27.42
2022-11-20T02:07:56.543Z,24.40
2022-11-20T02:10:23.085Z,22.63
2022-11-20T02:13:11.206Z,27.27
2022-11-20T02:15:37.761Z,25.45
2022-11-20T02:18:05.131Z,24.45
2022-11-20T02:20:32.018Z,24.15
2022-11-20T02:23:04.721Z,27.05
2022-11-20T02:25:33.906Z,23.98
2022-11-20T02:28:00.660Z,22.67
2022-11-20T02:30:27.244Z,24.27
2022-11-20T02:32:53.790Z,24.63
2022-11-20T02:35:20.222Z,25.20
2022-11-20T02:37:50.852Z,20.95
2022-11-20T02:40:17.562Z,25.88
2022-11-20T02:42:44.076Z,21.08
2022-11-20T02:45:11.356Z,21.77
2022-11-20T02:47:38.171Z,23.27
2022-11-20T02:50:07.440Z,24.98
2022-11-20T02:52:33.960Z,23.25
2022-11-20T02:55:00.492Z,25.02
2022-11-20T02:57:27.254Z,24.30
2022-11-20T02:59:53.807Z,24.70
2022-11-20T03:02:20.370Z,23.50
2022-11-20T03:04:46.933Z,26.30
2022-11-20T03:07:13.564Z,23.40
2022-11-20T03:09:40.134Z,22.65
2022-11-20T03:12:08.342Z,22.25
2022-11-20T03:14:35.562Z,22.40
2022-11-20T03:17:02.121Z,25.17
2022-11-20T03:19:28.719Z,22.52
2022-11-20T03:21:55.229Z,21.42
2022-11-20T03:24:22.296Z,24.80
2022-11-20T03:26:48.774Z,23.65
2022-11-20T03:29:15.281Z,21.27
2022-11-20T03:31:42.178Z,19.98
2022-11-20T03:34:10.666Z,23.38
2022-11-20T03:36:40.102Z,24.58
2022-11-20T03:39:06.920Z,22.08
2022-11-20T03:41:38.149Z,23.58
2022-11-20T03:44:07.990Z,24.67
2022-11-20T03:46:35.003Z,26.42
2022-11-20T03:49:01.754Z,23.10
2022-11-20T03:51:31.064Z,27.02
2022-11-20T03:53:59.733Z,20.92
2022-11-20T03:56:28.773Z,22.08
2022-11-20T04:01:24.426Z,20.40
2022-11-20T04:03:53.581Z,27.20
2022-11-20T04:06:22.423Z,19.38
2022-11-20T04:08:53.580Z,19.70
2022-11-20T04:11:26.448Z,23.92
2022-11-20T04:13:55.421Z,26.95
2022-11-20T04:16:23.360Z,19.67
2022-11-20T04:18:58.075Z,20.45
2022-11-20T04:21:25.034Z,18.98
2022-11-20T04:23:53.720Z,22.60
2022-11-20T04:26:20.870Z,23.15
2022-11-20T04:28:47.565Z,24.08
2022-11-20T04:31:19.126Z,24.40
2022-11-20T04:33:45.859Z,21.42
2022-11-20T04:36:17.751Z,22.10
2022-11-20T04:38:44.930Z,20.00
2022-11-20T04:41:21.878Z,20.10
2022-11-20T04:43:49.855Z,18.80
2022-11-20T04:46:17.948Z,24.98
2022-11-20T04:48:44.987Z,24.77
2022-11-20T04:51:11.709Z,19.58
2022-11-20T04:53:38.312Z,21.10
2022-11-20T04:56:08.084Z,19.70
2022-11-20T04:58:35.568Z,21.67
2022-11-20T05:01:07.447Z,19.05
2022-11-20T05:03:37.303Z,21.92
2022-11-20T05:06:07.735Z,21.17
2022-11-20T05:08:35.125Z,17.00
2022-11-20T05:11:04.052Z,20.27
2022-11-20T05:13:30.553Z,19.65
2022-11-20T05:16:01.743Z,20.23
2022-11-20T05:18:29.002Z,21.42
2022-11-20T05:20:57.180Z,22.42
2022-11-20T05:23:24.064Z,19.13
2022-11-20T05:25:58.715Z,22.58
2022-11-20T05:30:52.666Z,20.17
2022-11-20T05:33:19.583Z,21.50
2022-11-20T05:35:46.081Z,19.55
2022-11-20T05:38:12.667Z,20.08
2022-11-20T05:40:39.118Z,20.05
2022-11-20T05:43:05.597Z,24.38
2022-11-20T05:45:32.164Z,23.38
2022-11-20T05:48:01.200Z,17.92
2022-11-20T05:53:01.090Z,17.33
2022-11-20T05:55:28.177Z,21.92
2022-11-20T05:57:55.967Z,20.27
2022-11-20T06:00:23.182Z,22.50
2022-11-20T06:02:49.857Z,21.15
2022-11-20T06:05:16.512Z,23.00
2022-11-20T06:07:43.101Z,22.23
2022-11-20T06:10:10.281Z,18.83
2022-11-20T06:12:36.886Z,21.58
2022-11-20T06:15:04.364Z,22.50
2022-11-20T06:17:30.847Z,21.77
2022-11-20T06:19:57.579Z,19.90
2022-11-20T06:22:24.052Z,20.33
2022-11-20T06:24:50.523Z,20.15
2022-11-20T06:27:17.634Z,21.77
2022-11-20T06:29:44.119Z,21.45
2022-11-20T06:32:10.603Z,23.23
2022-11-20T06:34:37.108Z,21.17
2022-11-20T06:37:03.621Z,20.70
2022-11-20T06:39:30.104Z,20.35
2022-11-20T06:41:59.069Z,20.98
2022-11-20T06:44:26.088Z,20.80
2022-11-20T06:46:52.585Z,23.20
2022-11-20T06:49:19.374Z,21.25
2022-11-20T06:51:46.103Z,22.27
2022-11-20T06:54:12.589Z,23.63
2022-11-20T06:56:39.078Z,23.35
2022-11-20T06:59:07.370Z,24.85
2022-11-20T07:01:33.888Z,24.27
2022-11-20T07:04:00.434Z,23.33
2022-11-20T07:06:26.942Z,23.02
2022-11-20T07:08:53.660Z,21.13
2022-11-20T07:11:20.248Z,22.50
2022-11-20T07:13:46.786Z,19.48
2022-11-20T07:16:13.278Z,21.52
2022-11-20T07:18:39.826Z,20.90
2022-11-20T07:21:14.422Z,19.00
2022-11-20T07:23:40.819Z,20.40
2022-11-20T07:26:09.700Z,20.67
2022-11-20T07:28:36.978Z,19.48
2022-11-20T07:31:03.834Z,23.02
2022-11-20T07:33:30.381Z,23.40
2022-11-20T07:35:57.010Z,20.80
2022-11-20T07:38:23.507Z,19.30
2022-11-20T07:40:55.141Z,18.98
2022-11-20T07:43:21.587Z,18.92
2022-11-20T07:45:48.037Z,17.70
2022-11-20T07:48:14.489Z,18.02
2022-11-20T07:50:41.001Z,23.65
2022-11-20T07:53:08.001Z,23.77
2022-11-20T07:55:34.525Z,21.02
2022-11-20T07:58:01.126Z,21.77
2022-11-20T08:00:28.493Z,21.23
2022-11-20T08:02:55.441Z,25.27
2022-11-20T08:05:22.051Z,23.27
2022-11-20T08:07:49.347Z,27.00
2022-11-20T08:10:17.225Z,21.23
2022-11-20T08:13:07.641Z,22.33
2022-11-20T08:15:34.781Z,21.92
2022-11-20T08:21:02.679Z,24.13
2022-11-20T08:23:29.156Z,19.63
2022-11-20T08:25:55.715Z,28.60
2022-11-20T08:28:22.702Z,24.63
2022-11-20T08:30:51.056Z,23.02
2022-11-20T08:33:19.094Z,22.85
2022-11-20T08:35:45.888Z,22.63
2022-11-20T08:38:12.453Z,21.35
2022-11-20T08:40:38.940Z,22.05
2022-11-20T08:43:05.435Z,22.55
2022-11-20T08:45:34.566Z,23.10
2022-11-20T08:48:03.601Z,26.35
2022-11-20T08:50:32.655Z,24.92
2022-11-20T08:53:06.668Z,24.67
2022-11-20T08:55:33.904Z,26.08
2022-11-20T08:58:05.132Z,29.60
2022-11-20T09:00:31.667Z,25.15
2022-11-20T09:02:59.537Z,23.83
2022-11-20T09:05:26.114Z,28.40
2022-11-20T09:07:52.599Z,23.55
2022-11-20T09:10:26.067Z,29.60
2022-11-20T09:12:53.798Z,34.95
2022-11-20T09:15:20.760Z,36.00
2022-11-20T09:18:01.231Z,28.88
2022-11-20T09:20:29.992Z,29.77
2022-11-20T09:22:57.353Z,27.83
2022-11-20T09:25:23.970Z,25.95
2022-11-20T09:27:59.658Z,25.05
2022-11-20T09:30:27.359Z,25.77
2022-11-20T09:32:53.989Z,27.17
2022-11-20T09:35:20.498Z,23.13
2022-11-20T09:37:47.114Z,25.33
2022-11-20T09:40:24.217Z,26.77
2022-11-20T09:42:55.788Z,27.75
2022-11-20T09:46:00.091Z,26.67
2022-11-20T09:48:56.553Z,27.33
2022-11-20T09:51:29.087Z,26.52
2022-11-20T09:54:19.038Z,28.58
2022-11-20T09:56:52.576Z,23.75
2022-11-20T09:59:42.515Z,25.73
2022-11-20T10:02:26.795Z,60.35
2022-11-20T10:04:56.510Z,30.70
2022-11-20T10:07:32.756Z,33.28
2022-11-20T10:10:00.284Z,42.65
2022-11-20T10:13:01.673Z,27.77
2022-11-20T10:15:49.277Z,30.63
2022-11-20T10:18:24.406Z,27.98
2022-11-20T10:21:04.897Z,32.72
2022-11-20T10:23:37.343Z,30.08
2022-11-20T10:26:17.392Z,29.25
2022-11-20T10:29:20.650Z,38.13
2022-11-20T10:31:55.697Z,27.40
2022-11-20T10:37:06.880Z,30.08
2022-11-20T10:39:46.755Z,28.50
2022-11-20T10:42:20.654Z,29.25
2022-11-20T10:45:06.097Z,30.75
2022-11-20T10:47:33.802Z,27.98
2022-11-20T10:50:05.400Z,29.98
2022-11-20T10:53:01.223Z,30.15
2022-11-20T10:55:40.172Z,28.17
2022-11-20T10:58:27.603Z,27.38
2022-11-20T11:01:14.501Z,30.38
2022-11-20T11:03:43.925Z,28.90
2022-11-20T11:06:18.819Z,29.02
2022-11-20T11:08:48.391Z,28.58
2022-11-20T11:11:34.708Z,27.08
2022-11-20T11:14:12.382Z,33.25
2022-11-20T11:16:52.097Z,28.40
2022-11-20T11:19:18.629Z,29.73
2022-11-20T11:21:55.194Z,29.65
2022-11-20T11:24:43.603Z,27.05
2022-11-20T11:27:18.781Z,31.23
2022-11-20T11:29:46.458Z,29.75
2022-11-20T11:32:14.230Z,31.08
2022-11-20T11:34:41.230Z,32.08
2022-11-20T11:37:36.387Z,32.30
2022-11-20T11:42:59.418Z,35.13
2022-11-20T11:45:27.081Z,34.58
2022-11-20T11:47:57.566Z,31.83
2022-11-20T11:50:29.813Z,36.90
2022-11-20T11:53:18.478Z,33.22
2022-11-20T11:55:47.909Z,34.42
2022-11-20T11:58:45.233Z,42.05
2022-11-20T12:01:44.849Z,32.90
2022-11-20T12:04:23.834Z,33.22
2022-11-20T12:07:31.413Z,31.90
2022-11-20T12:09:58.765Z,33.03
2022-11-20T12:12:45.900Z,32.95
2022-11-20T12:15:18.482Z,37.40
2022-11-20T12:17:45.079Z,41.03
2022-11-20T12:20:14.772Z,36.25
2022-11-20T12:22:57.861Z,53.28
2022-11-20T12:25:34.491Z,40.15
2022-11-20T12:28:34.609Z,46.55
2022-11-20T12:31:19.840Z,32.58
2022-11-20T12:34:14.080Z,35.88
2022-11-20T12:36:57.879Z,35.00
2022-11-20T12:39:41.917Z,37.22
2022-11-20T12:42:59.818Z,43.67
2022-11-20T12:45:47.966Z,34.40
2022-11-20T12:48:14.443Z,32.58
2022-11-20T12:51:15.501Z,35.17
2022-11-20T12:54:00.731Z,32.17
2022-11-20T12:56:40.340Z,35.75
2022-11-20T12:59:31.571Z,33.22
2022-11-20T13:02:21.410Z,33.22
2022-11-20T13:05:30.394Z,31.92
2022-11-20T13:07:58.937Z,33.83
2022-11-20T13:10:38.317Z,34.83
2022-11-20T13:13:21.396Z,36.75
2022-11-20T13:16:02.258Z,32.08
2022-11-20T13:18:35.037Z,32.95
2022-11-20T13:21:01.568Z,36.53
2022-11-20T13:23:29.206Z,33.40
2022-11-20T13:26:18.640Z,33.88
2022-11-20T13:28:47.243Z,35.30
2022-11-20T13:31:37.775Z,33.58
2022-11-20T13:34:06.942Z,38.65
2022-11-20T13:36:35.890Z,30.90
2022-11-20T13:39:02.978Z,34.75
2022-11-20T13:41:29.404Z,30.40
2022-11-20T13:44:15.495Z,36.60
2022-11-20T13:46:47.277Z,35.88
2022-11-20T13:49:43.835Z,34.05
2022-11-20T13:52:39.730Z,32.30
2022-11-20T13:55:17.602Z,30.98
2022-11-20T13:57:53.353Z,30.67
2022-11-20T14:00:22.507Z,34.95
2022-11-20T14:03:17.341Z,34.60
2022-11-20T14:05:56.271Z,35.42
2022-11-20T14:08:29.735Z,35.38
2022-11-20T14:11:26.558Z,35.20
2022-11-20T14:13:56.191Z,38.42
2022-11-20T14:16:24.460Z,39.08
2022-11-20T14:18:51.836Z,36.92
2022-11-20T14:21:30.510Z,36.08
2022-11-20T14:24:08.167Z,38.53
2022-11-20T14:26:36.253Z,34.08
2022-11-20T14:29:02.943Z,34.25
2022-11-20T14:31:29.728Z,33.90
2022-11-20T14:33:56.722Z,36.50
2022-11-20T14:36:26.251Z,38.78
2022-11-20T14:38:53.363Z,38.53
2022-11-20T14:41:25.053Z,34.28
2022-11-20T14:43:58.479Z,36.97
2022-11-20T14:46:25.309Z,39.53
2022-11-20T14:48:57.347Z,39.15
2022-11-20T14:51:31.454Z,35.20
2022-11-20T14:54:11.948Z,34.78
2022-11-20T14:56:38.455Z,35.35
2022-11-20T14:59:05.197Z,36.97
2022-11-20T15:01:33.677Z,36.95
2022-11-20T15:04:01.394Z,38.33
2022-11-20T15:06:28.110Z,37.97
2022-11-20T15:08:54.687Z,35.80
2022-11-20T15:11:30.284Z,35.53
2022-11-20T15:13:58.105Z,37.00
2022-11-20T15:16:26.040Z,42.35
2022-11-20T15:18:52.565Z,40.33
2022-11-20T15:21:21.804Z,57.05
2022-11-20T15:23:48.666Z,48.00
2022-11-20T15:26:20.632Z,40.65
2022-11-20T15:28:48.867Z,41.63
2022-11-20T15:31:18.187Z,44.72
2022-11-20T15:33:44.711Z,41.95
2022-11-20T15:36:11.411Z,37.03
2022-11-20T15:38:38.066Z,44.13
2022-11-20T15:41:05.219Z,46.47
2022-11-20T15:43:32.023Z,41.55
2022-11-20T15:46:02.993Z,38.50
2022-11-20T15:48:54.811Z,48.63
2022-11-20T15:51:39.009Z,40.45
2022-11-20T15:54:15.644Z,42.22
2022-11-20T15:56:42.342Z,34.45
2022-11-20T15:59:08.940Z,38.72
2022-11-20T16:01:35.834Z,38.13
2022-11-20T16:04:02.568Z,39.55
2022-11-20T16:06:29.004Z,41.33
2022-11-20T16:08:55.524Z,41.20
2022-11-20T16:11:22.066Z,43.55
2022-11-20T16:14:26.802Z,40.70
2022-11-20T16:16:53.460Z,38.35
2022-11-20T16:19:19.966Z,37.70
2022-11-20T16:21:46.553Z,43.50
2022-11-20T16:24:15.149Z,45.95
2022-11-20T16:26:42.327Z,40.55
2022-11-20T16:29:09.349Z,36.47
2022-11-20T16:31:36.052Z,41.08
2022-11-20T16:34:11.167Z,36.50
2022-11-20T16:36:42.401Z,41.00
2022-11-20T16:39:08.949Z,38.10
2022-11-20T16:41:36.392Z,37.90
2022-11-20T16:44:07.989Z,40.15
2022-11-20T16:46:34.575Z,39.58
2022-11-20T16:49:03.723Z,38.05
2022-11-20T16:51:35.081Z,35.40
2022-11-20T16:54:06.684Z,40.08
2022-11-20T16:56:33.694Z,37.83
2022-11-20T16:59:02.513Z,38.40
2022-11-20T17:01:30.098Z,39.95
2022-11-20T17:04:05.897Z,39.55
2022-11-20T17:06:46.563Z,40.00
2022-11-20T17:09:13.769Z,37.28
2022-11-20T17:11:40.248Z,40.03
2022-11-20T17:14:09.971Z,41.33
2022-11-20T17:16:37.326Z,36.10
2022-11-20T17:19:05.380Z,41.20
2022-11-20T17:21:33.247Z,41.47
2022-11-20T17:24:04.867Z,39.72
2022-11-20T17:26:31.399Z,40.58
2022-11-20T17:29:04.710Z,38.88
2022-11-20T17:31:32.833Z,44.45
2022-11-20T17:34:00.424Z,45.30
2022-11-20T17:36:28.274Z,42.08
2022-11-20T17:38:55.192Z,41.63
2022-11-20T17:41:23.320Z,42.97
2022-11-20T17:43:50.106Z,47.33
2022-11-20T17:46:19.075Z,43.47
2022-11-20T17:48:46.452Z,44.00
2022-11-20T17:51:17.232Z,40.92
2022-11-20T17:53:46.121Z,41.10
2022-11-20T17:56:31.031Z,39.63
2022-11-20T17:58:57.736Z,34.67
2022-11-20T18:01:25.072Z,42.03
2022-11-20T18:03:51.815Z,36.05
2022-11-20T18:06:21.757Z,36.28
2022-11-20T18:08:49.131Z,40.45
2022-11-20T18:11:17.653Z,35.70
2022-11-20T18:14:05.445Z,35.70
2022-11-20T18:16:34.814Z,35.88
2022-11-20T18:19:01.635Z,34.42
2022-11-20T18:21:29.725Z,36.72
2022-11-20T18:23:56.775Z,36.65
2022-11-20T18:26:23.912Z,36.78
2022-11-20T18:28:51.248Z,36.22
2022-11-20T18:31:17.875Z,34.35
2022-11-20T18:33:44.630Z,35.17
2022-11-20T18:36:15.423Z,35.63
2022-11-20T18:38:46.966Z,36.88
2022-11-20T18:41:37.604Z,37.85
2022-11-20T18:44:25.498Z,32.92
2022-11-20T18:46:52.490Z,34.90
2022-11-20T18:49:19.030Z,31.88
2022-11-20T18:51:45.609Z,35.22
2022-11-20T18:54:13.050Z,35.33
2022-11-20T18:56:39.796Z,35.40
2022-11-20T18:59:10.225Z,35.42
2022-11-20T19:01:37.661Z,33.47
2022-11-20T19:04:12.391Z,33.20
2022-11-20T19:06:39.908Z,32.78
2022-11-20T19:09:09.111Z,34.45
2022-11-20T19:11:36.342Z,36.70
2022-11-20T19:14:03.496Z,36.17
2022-11-20T19:16:30.384Z,34.67
2022-11-20T19:19:03.262Z,36.72
2022-11-20T19:21:30.637Z,36.30
2022-11-20T19:23:59.137Z,35.40
2022-11-20T19:26:26.630Z,38.63
2022-11-20T19:28:53.792Z,34.30
2022-11-20T19:31:24.609Z,38.08
2022-11-20T19:34:00.894Z,36.65
2022-11-20T19:36:32.972Z,36.65
2022-11-20T19:39:00.117Z,40.92
2022-11-20T19:41:29.109Z,37.20
2022-11-20T19:43:59.787Z,38.92
2022-11-20T19:46:27.901Z,36.22
2022-11-20T19:48:55.371Z,36.50
2022-11-20T19:51:24.808Z,36.47
2022-11-20T19:53:51.988Z,38.17
2022-11-20T19:56:21.696Z,36.92
2022-11-20T19:58:48.110Z,35.28
2022-11-20T20:01:17.923Z,37.67
2022-11-20T20:03:46.189Z,36.67
2022-11-20T20:06:22.297Z,33.97
2022-11-20T20:08:55.278Z,36.65
2022-11-20T20:11:23.442Z,33.05
2022-11-20T20:13:50.154Z,32.97
2022-11-20T20:16:21.175Z,33.83
2022-11-20T20:18:47.834Z,36.90
2022-11-20T20:21:16.930Z,38.53
2022-11-20T20:23:44.240Z,36.92
2022-11-20T20:26:11.591Z,36.53
2022-11-20T20:28:38.528Z,36.72
2022-11-20T20:31:13.798Z,33.42
2022-11-20T20:33:41.527Z,33.83
2022-11-20T20:36:14.001Z,34.17
2022-11-20T20:38:41.209Z,35.75
2022-11-20T20:41:07.727Z,35.38
2022-11-20T20:43:54.159Z,34.50
2022-11-20T20:46:20.688Z,38.63
2022-11-20T20:48:52.995Z,35.45
2022-11-20T20:51:20.932Z,33.45
2022-11-20T20:53:47.408Z,37.92
2022-11-20T20:56:13.998Z,35.10
2022-11-20T20:58:41.176Z,34.97
2022-11-20T21:01:10.890Z,36.63
2022-11-20T21:03:37.763Z,40.88
2022-11-20T21:06:06.641Z,39.60
2022-11-20T21:11:06.176Z,34.88
2022-11-20T21:13:34.442Z,33.92
2022-11-20T21:16:01.278Z,41.13
2022-11-20T21:18:28.633Z,38.13
2022-11-20T21:21:15.426Z,39.20
2022-11-20T21:23:45.896Z,36.33
2022-11-20T21:26:12.373Z,36.25
2022-11-20T21:28:39.078Z,38.55
2022-11-20T21:31:11.309Z,36.88
2022-11-20T21:33:57.262Z,37.97
2022-11-20T21:36:27.156Z,39.88
2022-11-20T21:38:55.544Z,40.65
2022-11-20T21:41:23.222Z,43.90
2022-11-20T21:44:15.879Z,39.30
2022-11-20T21:46:41.143Z,37.67
2022-11-20T21:49:07.750Z,39.75
2022-11-20T21:51:35.108Z,40.60
2022-11-20T21:54:01.584Z,39.38
2022-11-20T21:56:28.403Z,38.42
2022-11-20T21:58:55.531Z,41.65
2022-11-20T22:01:26.562Z,41.72
2022-11-20T22:03:57.212Z,35.42
2022-11-20T22:06:25.254Z,39.05
2022-11-20T22:08:52.006Z,38.83
2022-11-20T22:11:20.810Z,38.53
2022-11-20T22:14:06.455Z,39.00
2022-11-20T22:16:34.518Z,39.45
2022-11-20T22:19:01.116Z,40.90
2022-11-20T22:21:29.396Z,42.42
2022-11-20T22:23:56.950Z,38.15
2022-11-20T22:26:25.966Z,43.20
2022-11-20T22:28:54.669Z,42.25
2022-11-20T22:31:23.541Z,39.95
2022-11-20T22:33:51.396Z,41.65
2022-11-20T22:36:23.620Z,42.63
2022-11-20T22:38:50.336Z,45.05
2022-11-20T22:41:19.325Z,45.33
2022-11-20T22:43:46.345Z,41.47
2022-11-20T22:46:17.866Z,42.60
2022-11-20T22:48:55.577Z,42.70
2022-11-20T22:51:25.379Z,42.60
2022-11-20T22:53:52.466Z,46.78
2022-11-20T22:56:19.455Z,42.55
2022-11-20T22:58:50.424Z,48.45
2022-11-20T23:01:22.696Z,44.05
2022-11-20T23:03:51.705Z,44.42
2022-11-20T23:06:20.185Z,42.22
2022-11-20T23:08:47.600Z,43.70
2022-11-20T23:11:26.660Z,40.08
2022-11-20T23:14:01.394Z,43.20
2022-11-20T23:16:29.629Z,36.60
2022-11-20T23:19:01.394Z,45.42
2022-11-20T23:21:28.488Z,43.92
2022-11-20T23:23:56.697Z,42.42
2022-11-20T23:26:25.576Z,42.05
2022-11-20T23:28:53.686Z,44.58
2022-11-20T23:31:20.413Z,43.20
2022-11-20T23:33:46.980Z,45.42
2022-11-20T23:36:14.377Z,39.60
2022-11-20T23:38:41.234Z,40.78
2022-11-20T23:41:08.142Z,41.47
2022-11-20T23:43:35.104Z,43.10
2022-11-20T23:46:02.600Z,42.38
2022-11-20T23:48:34.960Z,40.67
2022-11-20T23:51:02.212Z,45.50
2022-11-20T23:53:29.097Z,44.90
2022-11-20T23:55:58.030Z,39.00
2022-11-20T23:58:26.868Z,45.65
